sensor_id;sensor_type;location;lat;lon;timestamp;temperature;humidity
6256;DHT22;3161;48.794;9.784;2023-02-10T00:01:25;-2.70;99.90
6256;DHT22;3161;48.794;9.784;2023-02-10T00:03:53;-2.70;99.90
6256;DHT22;3161;48.794;9.784;2023-02-10T00:06:22;-2.70;99.90
6256;DHT22;3161;48.794;9.784;2023-02-10T00:08:56;-2.80;99.90
6256;DHT22;3161;48.794;9.784;2023-02-10T00:11:23;-2.80;99.90
6256;DHT22;3161;48.794;9.784;2023-02-10T00:14:12;-2.80;99.90
6256;DHT22;3161;48.794;9.784;2023-02-10T00:16:39;-2.80;99.90
6256;DHT22;3161;48.794;9.784;2023-02-10T00:19:06;-2.90;99.90
6256;DHT22;3161;48.794;9.784;2023-02-10T00:21:35;-2.90;99.90
6256;DHT22;3161;48.794;9.784;2023-02-10T00:24:03;-2.90;99.90
6256;DHT22;3161;48.794;9.784;2023-02-10T00:26:30;-3.00;99.90
6256;DHT22;3161;48.794;9.784;2023-02-10T00:28:58;-3.00;99.90
6256;DHT22;3161;48.794;9.784;2023-02-10T00:31:26;-3.00;99.90
6256;DHT22;3161;48.794;9.784;2023-02-10T00:33:53;-3.00;99.90
6256;DHT22;3161;48.794;9.784;2023-02-10T00:36:21;-3.10;99.90
6256;DHT22;3161;48.794;9.784;2023-02-10T00:38:51;-3.10;99.90
6256;DHT22;3161;48.794;9.784;2023-02-10T00:41:21;-3.10;99.90
6256;DHT22;3161;48.794;9.784;2023-02-10T00:43:49;-3.10;99.90
6256;DHT22;3161;48.794;9.784;2023-02-10T00:46:19;-3.20;99.90
6256;DHT22;3161;48.794;9.784;2023-02-10T00:48:47;-3.20;99.90
6256;DHT22;3161;48.794;9.784;2023-02-10T00:51:15;-3.20;99.90
6256;DHT22;3161;48.794;9.784;2023-02-10T00:53:43;-3.20;99.90
6256;DHT22;3161;48.794;9.784;2023-02-10T00:56:12;-3.20;99.90
6256;DHT22;3161;48.794;9.784;2023-02-10T00:58:39;-3.30;99.90
6256;DHT22;3161;48.794;9.784;2023-02-10T01:01:07;-3.30;99.90
6256;DHT22;3161;48.794;9.784;2023-02-10T01:03:34;-3.30;99.90
6256;DHT22;3161;48.794;9.784;2023-02-10T01:06:02;-3.30;99.90
6256;DHT22;3161;48.794;9.784;2023-02-10T01:08:30;-3.30;99.90
6256;DHT22;3161;48.794;9.784;2023-02-10T01:11:00;-3.30;99.90
6256;DHT22;3161;48.794;9.784;2023-02-10T01:13:28;-3.40;99.90
6256;DHT22;3161;48.794;9.784;2023-02-10T01:15:55;-3.40;99.90
6256;DHT22;3161;48.794;9.784;2023-02-10T01:18:23;-3.40;99.90
6256;DHT22;3161;48.794;9.784;2023-02-10T01:20:51;-3.40;99.90
6256;DHT22;3161;48.794;9.784;2023-02-10T01:23:18;-3.40;99.90
6256;DHT22;3161;48.794;9.784;2023-02-10T01:25:46;-3.40;99.90
6256;DHT22;3161;48.794;9.784;2023-02-10T01:28:13;-3.40;99.90
6256;DHT22;3161;48.794;9.784;2023-02-10T01:30:41;-3.40;99.90
6256;DHT22;3161;48.794;9.784;2023-02-10T01:33:08;-3.40;99.90
6256;DHT22;3161;48.794;9.784;2023-02-10T01:35:37;-3.40;99.90
6256;DHT22;3161;48.794;9.784;2023-02-10T01:38:05;-3.50;99.90
6256;DHT22;3161;48.794;9.784;2023-02-10T01:40:33;-3.50;99.90
6256;DHT22;3161;48.794;9.784;2023-02-10T01:43:01;-3.50;99.90
6256;DHT22;3161;48.794;9.784;2023-02-10T01:45:33;-3.60;99.90
6256;DHT22;3161;48.794;9.784;2023-02-10T01:48:02;-3.40;99.90
6256;DHT22;3161;48.794;9.784;2023-02-10T01:50:40;-3.60;99.90
6256;DHT22;3161;48.794;9.784;2023-02-10T01:53:07;-3.60;99.90
6256;DHT22;3161;48.794;9.784;2023-02-10T01:55:37;-3.60;99.90
6256;DHT22;3161;48.794;9.784;2023-02-10T01:58:07;-3.70;99.90
6256;DHT22;3161;48.794;9.784;2023-02-10T02:00:36;-3.70;99.90
6256;DHT22;3161;48.794;9.784;2023-02-10T02:03:05;-3.70;99.90
6256;DHT22;3161;48.794;9.784;2023-02-10T02:05:35;-3.70;99.90
6256;DHT22;3161;48.794;9.784;2023-02-10T02:08:21;-3.70;99.90
6256;DHT22;3161;48.794;9.784;2023-02-10T02:33:02;-3.90;99.90
6256;DHT22;3161;48.794;9.784;2023-02-10T02:35:32;-4.00;99.90
6256;DHT22;3161;48.794;9.784;2023-02-10T02:38:01;-4.00;99.90
6256;DHT22;3161;48.794;9.784;2023-02-10T02:40:29;-4.00;99.90
6256;DHT22;3161;48.794;9.784;2023-02-10T02:42:57;-4.00;99.90
6256;DHT22;3161;48.794;9.784;2023-02-10T02:45:27;-4.00;99.90
6256;DHT22;3161;48.794;9.784;2023-02-10T02:53:27;-4.00;99.90
6256;DHT22;3161;48.794;9.784;2023-02-10T03:01:34;-3.90;99.90
6256;DHT22;3161;48.794;9.784;2023-02-10T03:04:01;-3.90;99.90
6256;DHT22;3161;48.794;9.784;2023-02-10T03:06:29;-3.90;99.90
6256;DHT22;3161;48.794;9.784;2023-02-10T03:08:57;-3.90;99.90
6256;DHT22;3161;48.794;9.784;2023-02-10T03:11:24;-4.00;99.90
6256;DHT22;3161;48.794;9.784;2023-02-10T03:13:52;-4.00;99.90
6256;DHT22;3161;48.794;9.784;2023-02-10T03:16:20;-4.00;99.90
6256;DHT22;3161;48.794;9.784;2023-02-10T03:18:47;-4.10;99.90
6256;DHT22;3161;48.794;9.784;2023-02-10T03:21:15;-4.10;99.90
6256;DHT22;3161;48.794;9.784;2023-02-10T03:23:42;-4.10;99.90
6256;DHT22;3161;48.794;9.784;2023-02-10T03:26:10;-4.20;99.90
6256;DHT22;3161;48.794;9.784;2023-02-10T03:28:38;-4.20;99.90
6256;DHT22;3161;48.794;9.784;2023-02-10T03:31:07;-4.20;99.90
6256;DHT22;3161;48.794;9.784;2023-02-10T03:33:35;-4.20;99.90
6256;DHT22;3161;48.794;9.784;2023-02-10T03:36:04;-4.20;99.90
6256;DHT22;3161;48.794;9.784;2023-02-10T03:38:31;-4.20;99.90
6256;DHT22;3161;48.794;9.784;2023-02-10T03:40:59;-4.20;99.90
6256;DHT22;3161;48.794;9.784;2023-02-10T03:43:26;-4.20;99.90
6256;DHT22;3161;48.794;9.784;2023-02-10T03:45:54;-4.20;99.90
6256;DHT22;3161;48.794;9.784;2023-02-10T03:48:21;-4.30;99.90
6256;DHT22;3161;48.794;9.784;2023-02-10T03:50:51;-4.30;99.90
6256;DHT22;3161;48.794;9.784;2023-02-10T03:53:18;-4.30;99.90
6256;DHT22;3161;48.794;9.784;2023-02-10T03:55:46;-4.30;99.90
6256;DHT22;3161;48.794;9.784;2023-02-10T03:58:13;-4.30;99.90
6256;DHT22;3161;48.794;9.784;2023-02-10T04:00:41;-4.30;99.90
6256;DHT22;3161;48.794;9.784;2023-02-10T04:03:08;-4.30;99.90
6256;DHT22;3161;48.794;9.784;2023-02-10T04:05:36;-4.30;99.90
6256;DHT22;3161;48.794;9.784;2023-02-10T04:08:04;-4.30;99.90
6256;DHT22;3161;48.794;9.784;2023-02-10T04:10:31;-4.30;99.90
6256;DHT22;3161;48.794;9.784;2023-02-10T04:12:59;-4.30;99.90
6256;DHT22;3161;48.794;9.784;2023-02-10T04:15:27;-4.30;99.90
6256;DHT22;3161;48.794;9.784;2023-02-10T04:17:54;-4.30;99.90
6256;DHT22;3161;48.794;9.784;2023-02-10T04:20:24;-4.30;99.90
6256;DHT22;3161;48.794;9.784;2023-02-10T04:22:51;-4.40;99.90
6256;DHT22;3161;48.794;9.784;2023-02-10T04:25:19;-4.40;99.90
6256;DHT22;3161;48.794;9.784;2023-02-10T04:27:46;-4.40;99.90
6256;DHT22;3161;48.794;9.784;2023-02-10T04:30:14;-4.40;99.90
6256;DHT22;3161;48.794;9.784;2023-02-10T04:33:01;-4.40;99.90
6256;DHT22;3161;48.794;9.784;2023-02-10T04:35:28;-4.40;99.90
6256;DHT22;3161;48.794;9.784;2023-02-10T04:37:56;-4.40;99.90
6256;DHT22;3161;48.794;9.784;2023-02-10T04:40:25;-4.40;99.90
6256;DHT22;3161;48.794;9.784;2023-02-10T04:42:52;-4.40;99.90
6256;DHT22;3161;48.794;9.784;2023-02-10T04:45:20;-4.50;99.90
6256;DHT22;3161;48.794;9.784;2023-02-10T04:47:47;-4.50;99.90
6256;DHT22;3161;48.794;9.784;2023-02-10T04:50:15;-4.50;99.90
6256;DHT22;3161;48.794;9.784;2023-02-10T04:52:42;-4.40;99.90
6256;DHT22;3161;48.794;9.784;2023-02-10T04:55:10;-4.50;99.90
6256;DHT22;3161;48.794;9.784;2023-02-10T04:57:38;-4.50;99.90
6256;DHT22;3161;48.794;9.784;2023-02-10T05:00:06;-4.50;99.90
6256;DHT22;3161;48.794;9.784;2023-02-10T05:02:34;-4.50;99.90
6256;DHT22;3161;48.794;9.784;2023-02-10T05:05:01;-4.50;99.90
6256;DHT22;3161;48.794;9.784;2023-02-10T05:07:29;-4.50;99.90
6256;DHT22;3161;48.794;9.784;2023-02-10T05:09:57;-4.50;99.90
6256;DHT22;3161;48.794;9.784;2023-02-10T05:12:25;-4.60;99.90
6256;DHT22;3161;48.794;9.784;2023-02-10T05:14:52;-4.50;99.90
6256;DHT22;3161;48.794;9.784;2023-02-10T05:17:20;-4.50;99.90
6256;DHT22;3161;48.794;9.784;2023-02-10T05:19:47;-4.60;99.90
6256;DHT22;3161;48.794;9.784;2023-02-10T05:22:15;-4.60;99.90
6256;DHT22;3161;48.794;9.784;2023-02-10T05:24:42;-4.60;99.90
6256;DHT22;3161;48.794;9.784;2023-02-10T05:27:10;-4.60;99.90
6256;DHT22;3161;48.794;9.784;2023-02-10T05:29:37;-4.60;99.90
6256;DHT22;3161;48.794;9.784;2023-02-10T05:32:05;-4.60;99.90
6256;DHT22;3161;48.794;9.784;2023-02-10T05:34:32;-4.60;99.90
6256;DHT22;3161;48.794;9.784;2023-02-10T05:37:00;-4.70;99.90
6256;DHT22;3161;48.794;9.784;2023-02-10T05:39:27;-4.70;99.90
6256;DHT22;3161;48.794;9.784;2023-02-10T05:41:56;-4.70;99.90
6256;DHT22;3161;48.794;9.784;2023-02-10T05:44:26;-4.70;99.90
6256;DHT22;3161;48.794;9.784;2023-02-10T05:46:54;-4.70;99.90
6256;DHT22;3161;48.794;9.784;2023-02-10T05:49:22;-4.70;99.90
6256;DHT22;3161;48.794;9.784;2023-02-10T05:51:49;-4.70;99.90
6256;DHT22;3161;48.794;9.784;2023-02-10T05:54:17;-4.70;99.90
6256;DHT22;3161;48.794;9.784;2023-02-10T05:56:45;-4.70;99.90
6256;DHT22;3161;48.794;9.784;2023-02-10T05:59:12;-4.70;99.90
6256;DHT22;3161;48.794;9.784;2023-02-10T06:01:41;-4.70;99.90
6256;DHT22;3161;48.794;9.784;2023-02-10T06:04:09;-4.70;99.90
6256;DHT22;3161;48.794;9.784;2023-02-10T06:06:36;-4.70;99.90
6256;DHT22;3161;48.794;9.784;2023-02-10T06:09:04;-4.70;99.90
6256;DHT22;3161;48.794;9.784;2023-02-10T06:11:33;-4.70;99.90
6256;DHT22;3161;48.794;9.784;2023-02-10T06:14:01;-4.70;99.90
6256;DHT22;3161;48.794;9.784;2023-02-10T06:16:28;-4.70;99.90
6256;DHT22;3161;48.794;9.784;2023-02-10T06:18:56;-4.70;99.90
6256;DHT22;3161;48.794;9.784;2023-02-10T06:21:24;-4.70;99.90
6256;DHT22;3161;48.794;9.784;2023-02-10T06:23:52;-4.70;99.90
6256;DHT22;3161;48.794;9.784;2023-02-10T06:26:19;-4.70;99.90
6256;DHT22;3161;48.794;9.784;2023-02-10T06:28:47;-4.70;99.90
6256;DHT22;3161;48.794;9.784;2023-02-10T06:31:15;-4.70;99.90
6256;DHT22;3161;48.794;9.784;2023-02-10T06:33:42;-4.70;99.90
6256;DHT22;3161;48.794;9.784;2023-02-10T06:36:10;-4.70;99.90
6256;DHT22;3161;48.794;9.784;2023-02-10T06:38:38;-4.70;99.90
6256;DHT22;3161;48.794;9.784;2023-02-10T06:41:06;-4.70;99.90
6256;DHT22;3161;48.794;9.784;2023-02-10T06:43:34;-4.70;99.90
6256;DHT22;3161;48.794;9.784;2023-02-10T06:46:01;-4.80;99.90
6256;DHT22;3161;48.794;9.784;2023-02-10T06:48:30;-4.80;99.90
6256;DHT22;3161;48.794;9.784;2023-02-10T06:50:58;-4.80;99.90
6256;DHT22;3161;48.794;9.784;2023-02-10T06:53:25;-4.80;99.90
6256;DHT22;3161;48.794;9.784;2023-02-10T06:55:57;-4.80;99.90
6256;DHT22;3161;48.794;9.784;2023-02-10T06:58:25;-4.70;99.90
6256;DHT22;3161;48.794;9.784;2023-02-10T07:00:52;-4.70;99.90
6256;DHT22;3161;48.794;9.784;2023-02-10T07:03:20;-4.70;99.90
6256;DHT22;3161;48.794;9.784;2023-02-10T07:05:47;-4.70;99.90
6256;DHT22;3161;48.794;9.784;2023-02-10T07:08:15;-4.70;99.90
6256;DHT22;3161;48.794;9.784;2023-02-10T07:10:42;-4.60;99.90
6256;DHT22;3161;48.794;9.784;2023-02-10T07:13:10;-4.60;99.90
6256;DHT22;3161;48.794;9.784;2023-02-10T07:15:37;-4.60;99.90
6256;DHT22;3161;48.794;9.784;2023-02-10T07:18:05;-4.50;99.90
6256;DHT22;3161;48.794;9.784;2023-02-10T07:20:33;-4.50;99.90
6256;DHT22;3161;48.794;9.784;2023-02-10T07:23:00;-4.50;99.90
6256;DHT22;3161;48.794;9.784;2023-02-10T07:25:28;-4.40;99.90
6256;DHT22;3161;48.794;9.784;2023-02-10T07:27:55;-4.40;99.90
6256;DHT22;3161;48.794;9.784;2023-02-10T07:30:23;-4.40;99.90
6256;DHT22;3161;48.794;9.784;2023-02-10T07:32:50;-4.30;99.90
6256;DHT22;3161;48.794;9.784;2023-02-10T07:35:18;-4.20;99.90
6256;DHT22;3161;48.794;9.784;2023-02-10T07:37:45;-4.20;99.90
6256;DHT22;3161;48.794;9.784;2023-02-10T07:40:13;-4.20;99.90
6256;DHT22;3161;48.794;9.784;2023-02-10T07:42:40;-4.10;99.90
6256;DHT22;3161;48.794;9.784;2023-02-10T07:45:09;-4.10;99.90
6256;DHT22;3161;48.794;9.784;2023-02-10T07:47:36;-4.00;99.90
6256;DHT22;3161;48.794;9.784;2023-02-10T07:50:05;-4.00;99.90
6256;DHT22;3161;48.794;9.784;2023-02-10T07:52:32;-3.90;99.90
6256;DHT22;3161;48.794;9.784;2023-02-10T07:55:00;-3.80;99.90
6256;DHT22;3161;48.794;9.784;2023-02-10T07:57:29;-3.70;99.90
6256;DHT22;3161;48.794;9.784;2023-02-10T07:59:56;-3.60;99.90
6256;DHT22;3161;48.794;9.784;2023-02-10T08:02:24;-3.50;99.90
6256;DHT22;3161;48.794;9.784;2023-02-10T08:04:51;-3.50;99.90
6256;DHT22;3161;48.794;9.784;2023-02-10T08:07:21;-3.40;99.90
6256;DHT22;3161;48.794;9.784;2023-02-10T08:09:49;-3.30;99.90
6256;DHT22;3161;48.794;9.784;2023-02-10T08:12:16;-3.20;99.90
6256;DHT22;3161;48.794;9.784;2023-02-10T08:14:44;-3.20;99.90
6256;DHT22;3161;48.794;9.784;2023-02-10T08:17:12;-3.10;99.90
6256;DHT22;3161;48.794;9.784;2023-02-10T08:19:40;-3.10;99.90
6256;DHT22;3161;48.794;9.784;2023-02-10T08:22:07;-3.00;99.90
6256;DHT22;3161;48.794;9.784;2023-02-10T08:24:35;-2.90;99.90
6256;DHT22;3161;48.794;9.784;2023-02-10T08:27:04;-2.80;99.90
6256;DHT22;3161;48.794;9.784;2023-02-10T08:29:32;-2.80;99.90
6256;DHT22;3161;48.794;9.784;2023-02-10T08:32:00;-2.70;99.90
6256;DHT22;3161;48.794;9.784;2023-02-10T08:34:27;-2.60;99.90
6256;DHT22;3161;48.794;9.784;2023-02-10T08:36:55;-2.50;99.90
6256;DHT22;3161;48.794;9.784;2023-02-10T08:39:23;-2.50;99.90
6256;DHT22;3161;48.794;9.784;2023-02-10T08:41:50;-2.40;99.90
6256;DHT22;3161;48.794;9.784;2023-02-10T08:44:18;-2.30;99.90
6256;DHT22;3161;48.794;9.784;2023-02-10T08:46:45;-2.20;99.90
6256;DHT22;3161;48.794;9.784;2023-02-10T08:49:13;-2.10;99.90
6256;DHT22;3161;48.794;9.784;2023-02-10T08:51:40;-2.00;99.90
6256;DHT22;3161;48.794;9.784;2023-02-10T08:54:09;-1.90;99.90
6256;DHT22;3161;48.794;9.784;2023-02-10T08:56:37;-1.70;99.90
6256;DHT22;3161;48.794;9.784;2023-02-10T08:59:04;-1.60;99.90
6256;DHT22;3161;48.794;9.784;2023-02-10T09:01:32;-1.40;99.90
6256;DHT22;3161;48.794;9.784;2023-02-10T09:04:00;-1.30;99.90
6256;DHT22;3161;48.794;9.784;2023-02-10T09:06:34;-1.00;99.90
6256;DHT22;3161;48.794;9.784;2023-02-10T09:09:06;-0.80;99.90
6256;DHT22;3161;48.794;9.784;2023-02-10T09:11:34;-0.40;99.90
6256;DHT22;3161;48.794;9.784;2023-02-10T09:14:02;0.00;99.90
6256;DHT22;3161;48.794;9.784;2023-02-10T09:16:29;0.50;99.90
6256;DHT22;3161;48.794;9.784;2023-02-10T09:18:57;0.90;99.90
6256;DHT22;3161;48.794;9.784;2023-02-10T09:21:24;1.10;99.90
6256;DHT22;3161;48.794;9.784;2023-02-10T09:23:52;1.10;99.90
6256;DHT22;3161;48.794;9.784;2023-02-10T09:26:20;1.20;99.90
6256;DHT22;3161;48.794;9.784;2023-02-10T09:28:47;1.20;99.90
6256;DHT22;3161;48.794;9.784;2023-02-10T09:31:15;1.40;99.90
6256;DHT22;3161;48.794;9.784;2023-02-10T09:33:43;1.60;99.90
6256;DHT22;3161;48.794;9.784;2023-02-10T09:36:17;1.90;99.90
6256;DHT22;3161;48.794;9.784;2023-02-10T09:38:45;2.30;99.90
6256;DHT22;3161;48.794;9.784;2023-02-10T09:43:58;2.90;99.90
6256;DHT22;3161;48.794;9.784;2023-02-10T10:00:37;4.50;99.90
6256;DHT22;3161;48.794;9.784;2023-02-10T10:03:07;4.80;99.90
6256;DHT22;3161;48.794;9.784;2023-02-10T10:06:23;5.00;99.90
6256;DHT22;3161;48.794;9.784;2023-02-10T10:08:47;5.20;99.90
6256;DHT22;3161;48.794;9.784;2023-02-10T10:11:27;5.40;99.90
6256;DHT22;3161;48.794;9.784;2023-02-10T10:13:56;5.70;99.90
6256;DHT22;3161;48.794;9.784;2023-02-10T10:16:30;6.00;99.90
6256;DHT22;3161;48.794;9.784;2023-02-10T10:22:04;6.50;99.90
6256;DHT22;3161;48.794;9.784;2023-02-10T10:24:41;6.80;99.90
6256;DHT22;3161;48.794;9.784;2023-02-10T10:29:58;7.30;99.90
6256;DHT22;3161;48.794;9.784;2023-02-10T10:32:52;7.60;99.90
6256;DHT22;3161;48.794;9.784;2023-02-10T10:35:38;7.80;99.90
6256;DHT22;3161;48.794;9.784;2023-02-10T10:37:50;8.00;99.90
6256;DHT22;3161;48.794;9.784;2023-02-10T10:40:27;8.30;99.90
6256;DHT22;3161;48.794;9.784;2023-02-10T10:42:57;8.50;99.90
6256;DHT22;3161;48.794;9.784;2023-02-10T10:45:39;8.70;99.90
6256;DHT22;3161;48.794;9.784;2023-02-10T10:48:12;8.80;99.80
6256;DHT22;3161;48.794;9.784;2023-02-10T10:50:38;9.00;97.70
6256;DHT22;3161;48.794;9.784;2023-02-10T10:53:22;9.00;96.70
6256;DHT22;3161;48.794;9.784;2023-02-10T10:55:50;9.10;96.90
6256;DHT22;3161;48.794;9.784;2023-02-10T10:58:40;9.10;95.60
6256;DHT22;3161;48.794;9.784;2023-02-10T11:01:09;9.10;95.30
6256;DHT22;3161;48.794;9.784;2023-02-10T11:03:36;9.20;92.90
6256;DHT22;3161;48.794;9.784;2023-02-10T11:06:13;9.10;91.40
6256;DHT22;3161;48.794;9.784;2023-02-10T11:08:52;9.20;92.20
6256;DHT22;3161;48.794;9.784;2023-02-10T11:11:16;9.30;91.30
6256;DHT22;3161;48.794;9.784;2023-02-10T11:13:52;9.20;87.50
6256;DHT22;3161;48.794;9.784;2023-02-10T11:16:21;9.20;90.50
6256;DHT22;3161;48.794;9.784;2023-02-10T11:18:57;9.20;90.20
6256;DHT22;3161;48.794;9.784;2023-02-10T11:21:39;9.30;87.30
6256;DHT22;3161;48.794;9.784;2023-02-10T11:29:24;9.50;90.50
6256;DHT22;3161;48.794;9.784;2023-02-10T11:31:53;9.70;88.20
6256;DHT22;3161;48.794;9.784;2023-02-10T11:34:30;9.80;88.30
6256;DHT22;3161;48.794;9.784;2023-02-10T11:37:08;9.90;88.10
6256;DHT22;3161;48.794;9.784;2023-02-10T11:39:31;10.00;83.50
6256;DHT22;3161;48.794;9.784;2023-02-10T11:42:07;9.90;86.90
6256;DHT22;3161;48.794;9.784;2023-02-10T11:44:34;10.00;82.80
6256;DHT22;3161;48.794;9.784;2023-02-10T11:47:04;10.10;80.80
6256;DHT22;3161;48.794;9.784;2023-02-10T11:49:35;10.10;85.60
6256;DHT22;3161;48.794;9.784;2023-02-10T11:52:04;10.30;83.80
6256;DHT22;3161;48.794;9.784;2023-02-10T11:54:32;10.40;83.00
6256;DHT22;3161;48.794;9.784;2023-02-10T11:57:11;10.50;80.60
6256;DHT22;3161;48.794;9.784;2023-02-10T12:02:54;10.70;76.40
6256;DHT22;3161;48.794;9.784;2023-02-10T12:05:38;10.60;78.30
6256;DHT22;3161;48.794;9.784;2023-02-10T12:08:12;10.60;76.40
6256;DHT22;3161;48.794;9.784;2023-02-10T12:10:48;10.50;77.10
6256;DHT22;3161;48.794;9.784;2023-02-10T12:21:58;10.20;72.70
6256;DHT22;3161;48.794;9.784;2023-02-10T12:24:42;10.20;73.20
6256;DHT22;3161;48.794;9.784;2023-02-10T12:27:18;10.30;76.20
6256;DHT22;3161;48.794;9.784;2023-02-10T12:35:28;11.80;76.50
6256;DHT22;3161;48.794;9.784;2023-02-10T12:38:34;12.40;73.50
6256;DHT22;3161;48.794;9.784;2023-02-10T12:44:11;13.00;62.50
6256;DHT22;3161;48.794;9.784;2023-02-10T12:46:57;13.50;62.80
6256;DHT22;3161;48.794;9.784;2023-02-10T12:49:45;14.10;61.30
6256;DHT22;3161;48.794;9.784;2023-02-10T12:52:39;14.80;57.50
6256;DHT22;3161;48.794;9.784;2023-02-10T12:55:19;15.40;54.00
6256;DHT22;3161;48.794;9.784;2023-02-10T12:58:00;16.00;53.70
6256;DHT22;3161;48.794;9.784;2023-02-10T13:00:37;16.50;52.70
6256;DHT22;3161;48.794;9.784;2023-02-10T13:03:10;16.90;50.50
6256;DHT22;3161;48.794;9.784;2023-02-10T13:08:27;17.90;46.60
6256;DHT22;3161;48.794;9.784;2023-02-10T13:10:53;18.50;47.10
6256;DHT22;3161;48.794;9.784;2023-02-10T13:13:29;19.10;45.20
6256;DHT22;3161;48.794;9.784;2023-02-10T13:16:08;19.80;40.90
6256;DHT22;3161;48.794;9.784;2023-02-10T13:21:29;20.60;37.70
6256;DHT22;3161;48.794;9.784;2023-02-10T13:24:06;20.70;38.20
6256;DHT22;3161;48.794;9.784;2023-02-10T13:32:06;20.20;34.70
6256;DHT22;3161;48.794;9.784;2023-02-10T13:34:48;20.40;34.70
6256;DHT22;3161;48.794;9.784;2023-02-10T13:37:16;20.60;35.10
6256;DHT22;3161;48.794;9.784;2023-02-10T13:39:53;20.90;36.10
6256;DHT22;3161;48.794;9.784;2023-02-10T13:42:27;21.70;35.40
6256;DHT22;3161;48.794;9.784;2023-02-10T13:45:04;22.20;32.00
6256;DHT22;3161;48.794;9.784;2023-02-10T13:50:24;22.90;31.40
6256;DHT22;3161;48.794;9.784;2023-02-10T13:55:28;23.70;32.20
6256;DHT22;3161;48.794;9.784;2023-02-10T13:57:57;24.00;31.10
6256;DHT22;3161;48.794;9.784;2023-02-10T14:00:27;24.50;30.20
6256;DHT22;3161;48.794;9.784;2023-02-10T14:05:33;25.00;29.80
6256;DHT22;3161;48.794;9.784;2023-02-10T14:08:25;24.50;29.40
6256;DHT22;3161;48.794;9.784;2023-02-10T14:10:55;22.70;30.40
6256;DHT22;3161;48.794;9.784;2023-02-10T14:13:23;20.60;32.50
6256;DHT22;3161;48.794;9.784;2023-02-10T14:16:26;18.70;33.10
6256;DHT22;3161;48.794;9.784;2023-02-10T14:18:37;17.10;34.30
6256;DHT22;3161;48.794;9.784;2023-02-10T14:21:13;15.40;35.90
6256;DHT22;3161;48.794;9.784;2023-02-10T14:23:53;14.40;39.40
6256;DHT22;3161;48.794;9.784;2023-02-10T14:26:21;13.40;40.20
6256;DHT22;3161;48.794;9.784;2023-02-10T14:28:56;12.90;42.20
6256;DHT22;3161;48.794;9.784;2023-02-10T14:31:32;12.30;42.80
6256;DHT22;3161;48.794;9.784;2023-02-10T14:34:16;11.90;43.90
6256;DHT22;3161;48.794;9.784;2023-02-10T14:36:30;11.50;45.20
6256;DHT22;3161;48.794;9.784;2023-02-10T14:39:00;11.20;44.10
6256;DHT22;3161;48.794;9.784;2023-02-10T14:41:31;10.70;45.30
6256;DHT22;3161;48.794;9.784;2023-02-10T14:43:59;10.40;47.90
6256;DHT22;3161;48.794;9.784;2023-02-10T14:46:29;10.10;47.00
6256;DHT22;3161;48.794;9.784;2023-02-10T14:49:00;9.80;48.30
6256;DHT22;3161;48.794;9.784;2023-02-10T14:51:29;9.60;49.40
6256;DHT22;3161;48.794;9.784;2023-02-10T14:54:08;9.50;49.30
6256;DHT22;3161;48.794;9.784;2023-02-10T14:56:36;9.40;49.90
6256;DHT22;3161;48.794;9.784;2023-02-10T14:59:04;9.80;49.90
6256;DHT22;3161;48.794;9.784;2023-02-10T15:01:36;10.60;48.10
6256;DHT22;3161;48.794;9.784;2023-02-10T15:04:03;12.00;46.30
6256;DHT22;3161;48.794;9.784;2023-02-10T15:06:31;14.00;44.70
6256;DHT22;3161;48.794;9.784;2023-02-10T15:09:05;16.10;40.50
6256;DHT22;3161;48.794;9.784;2023-02-10T15:11:39;17.60;37.80
6256;DHT22;3161;48.794;9.784;2023-02-10T15:14:28;18.30;36.40
6256;DHT22;3161;48.794;9.784;2023-02-10T15:16:57;18.10;35.20
6256;DHT22;3161;48.794;9.784;2023-02-10T15:19:25;17.10;36.00
6256;DHT22;3161;48.794;9.784;2023-02-10T15:21:53;15.60;37.60
6256;DHT22;3161;48.794;9.784;2023-02-10T15:24:25;14.40;39.60
6256;DHT22;3161;48.794;9.784;2023-02-10T15:26:51;13.30;40.80
6256;DHT22;3161;48.794;9.784;2023-02-10T15:29:19;12.40;42.80
6256;DHT22;3161;48.794;9.784;2023-02-10T15:31:59;11.70;42.90
6256;DHT22;3161;48.794;9.784;2023-02-10T15:34:29;11.10;44.00
6256;DHT22;3161;48.794;9.784;2023-02-10T15:37:02;10.50;45.50
6256;DHT22;3161;48.794;9.784;2023-02-10T15:39:37;10.10;47.00
6256;DHT22;3161;48.794;9.784;2023-02-10T15:42:28;9.80;48.70
6256;DHT22;3161;48.794;9.784;2023-02-10T15:44:39;9.40;49.70
6256;DHT22;3161;48.794;9.784;2023-02-10T15:47:19;9.10;50.60
6256;DHT22;3161;48.794;9.784;2023-02-10T15:49:51;8.80;50.50
6256;DHT22;3161;48.794;9.784;2023-02-10T15:52:22;8.40;51.10
6256;DHT22;3161;48.794;9.784;2023-02-10T15:54:51;8.20;52.20
6256;DHT22;3161;48.794;9.784;2023-02-10T15:57:19;8.00;52.90
6256;DHT22;3161;48.794;9.784;2023-02-10T15:59:46;7.80;54.00
6256;DHT22;3161;48.794;9.784;2023-02-10T16:02:16;7.60;54.20
6256;DHT22;3161;48.794;9.784;2023-02-10T16:04:44;7.50;55.10
6256;DHT22;3161;48.794;9.784;2023-02-10T16:07:17;7.40;56.10
6256;DHT22;3161;48.794;9.784;2023-02-10T16:09:43;7.20;57.30
6256;DHT22;3161;48.794;9.784;2023-02-10T16:12:11;7.10;58.00
6256;DHT22;3161;48.794;9.784;2023-02-10T16:14:39;6.90;59.60
6256;DHT22;3161;48.794;9.784;2023-02-10T16:17:07;6.70;59.50
6256;DHT22;3161;48.794;9.784;2023-02-10T16:19:34;6.50;60.10
6256;DHT22;3161;48.794;9.784;2023-02-10T16:22:02;6.40;61.20
6256;DHT22;3161;48.794;9.784;2023-02-10T16:24:30;6.20;62.20
6256;DHT22;3161;48.794;9.784;2023-02-10T16:26:58;5.90;63.00
6256;DHT22;3161;48.794;9.784;2023-02-10T16:29:28;5.70;63.50
6256;DHT22;3161;48.794;9.784;2023-02-10T16:31:56;5.60;64.30
6256;DHT22;3161;48.794;9.784;2023-02-10T16:34:26;5.40;65.30
6256;DHT22;3161;48.794;9.784;2023-02-10T16:36:57;5.20;66.00
6256;DHT22;3161;48.794;9.784;2023-02-10T16:39:26;5.00;66.90
6256;DHT22;3161;48.794;9.784;2023-02-10T16:41:54;4.80;68.00
6256;DHT22;3161;48.794;9.784;2023-02-10T16:44:22;4.70;68.90
6256;DHT22;3161;48.794;9.784;2023-02-10T16:46:50;4.50;69.90
6256;DHT22;3161;48.794;9.784;2023-02-10T16:49:18;4.40;70.90
6256;DHT22;3161;48.794;9.784;2023-02-10T16:51:46;4.20;71.60
6256;DHT22;3161;48.794;9.784;2023-02-10T16:54:14;4.10;73.00
6256;DHT22;3161;48.794;9.784;2023-02-10T16:56:42;4.00;73.60
6256;DHT22;3161;48.794;9.784;2023-02-10T16:59:16;3.90;75.10
6256;DHT22;3161;48.794;9.784;2023-02-10T17:01:45;3.80;75.60
6256;DHT22;3161;48.794;9.784;2023-02-10T17:04:12;3.70;76.00
6256;DHT22;3161;48.794;9.784;2023-02-10T17:06:43;3.60;77.30
6256;DHT22;3161;48.794;9.784;2023-02-10T17:09:14;3.60;78.20
6256;DHT22;3161;48.794;9.784;2023-02-10T17:11:42;3.40;78.40
6256;DHT22;3161;48.794;9.784;2023-02-10T17:14:10;3.30;79.50
6256;DHT22;3161;48.794;9.784;2023-02-10T17:16:40;3.30;80.20
6256;DHT22;3161;48.794;9.784;2023-02-10T17:19:10;3.20;80.70
6256;DHT22;3161;48.794;9.784;2023-02-10T17:21:38;3.10;81.70
6256;DHT22;3161;48.794;9.784;2023-02-10T17:24:05;3.00;82.50
6256;DHT22;3161;48.794;9.784;2023-02-10T17:26:33;2.90;83.10
6256;DHT22;3161;48.794;9.784;2023-02-10T17:29:01;2.80;84.30
6256;DHT22;3161;48.794;9.784;2023-02-10T17:31:28;2.80;85.00
6256;DHT22;3161;48.794;9.784;2023-02-10T17:33:56;2.70;85.70
6256;DHT22;3161;48.794;9.784;2023-02-10T17:36:25;2.60;86.50
6256;DHT22;3161;48.794;9.784;2023-02-10T17:38:53;2.50;87.50
6256;DHT22;3161;48.794;9.784;2023-02-10T17:41:24;2.00;87.60
6256;DHT22;3161;48.794;9.784;2023-02-10T17:43:54;2.40;89.10
6256;DHT22;3161;48.794;9.784;2023-02-10T17:46:22;2.40;89.90
6256;DHT22;3161;48.794;9.784;2023-02-10T17:48:50;2.30;90.40
6256;DHT22;3161;48.794;9.784;2023-02-10T17:51:20;2.20;90.50
6256;DHT22;3161;48.794;9.784;2023-02-10T17:53:50;2.20;91.00
6256;DHT22;3161;48.794;9.784;2023-02-10T17:56:19;2.10;91.60
6256;DHT22;3161;48.794;9.784;2023-02-10T17:58:48;2.10;91.60
6256;DHT22;3161;48.794;9.784;2023-02-10T18:01:25;2.00;92.10
6256;DHT22;3161;48.794;9.784;2023-02-10T18:03:49;2.00;92.40
6256;DHT22;3161;48.794;9.784;2023-02-10T18:06:17;2.00;92.80